sensor_id;sensor_type;location;lat;lon;timestamp;P1;durP1;ratioP1;P2;durP2;ratioP2
79706;SDS011;69200;53.612;-2.416;2023-05-20T00:00:05;32.38;;;13.73;;
79706;SDS011;69200;53.612;-2.416;2023-05-20T00:02:32;35.65;;;14.63;;
79706;SDS011;69200;53.612;-2.416;2023-05-20T00:04:57;34.05;;;14.80;;
79706;SDS011;69200;53.612;-2.416;2023-05-20T00:07:23;36.15;;;15.30;;
79706;SDS011;69200;53.612;-2.416;2023-05-20T00:09:48;39.78;;;15.60;;
79706;SDS011;69200;53.612;-2.416;2023-05-20T00:12:14;38.15;;;15.68;;
79706;SDS011;69200;53.612;-2.416;2023-05-20T00:14:39;37.10;;;15.77;;
79706;SDS011;69200;53.612;-2.416;2023-05-20T00:17:05;38.40;;;15.32;;
79706;SDS011;69200;53.612;-2.416;2023-05-20T00:19:30;42.78;;;17.10;;
79706;SDS011;69200;53.612;-2.416;2023-05-20T00:21:56;40.92;;;16.17;;
79706;SDS011;69200;53.612;-2.416;2023-05-20T00:24:22;35.78;;;15.73;;
79706;SDS011;69200;53.612;-2.416;2023-05-20T00:26:48;47.67;;;17.58;;
79706;SDS011;69200;53.612;-2.416;2023-05-20T00:29:14;38.67;;;16.08;;
79706;SDS011;69200;53.612;-2.416;2023-05-20T00:31:39;39.88;;;16.92;;
79706;SDS011;69200;53.612;-2.416;2023-05-20T00:34:06;36.13;;;15.57;;
79706;SDS011;69200;53.612;-2.416;2023-05-20T00:36:31;36.22;;;16.70;;
79706;SDS011;69200;53.612;-2.416;2023-05-20T00:38:57;33.47;;;15.27;;
79706;SDS011;69200;53.612;-2.416;2023-05-20T00:41:22;38.50;;;16.30;;
79706;SDS011;69200;53.612;-2.416;2023-05-20T00:43:51;36.83;;;16.33;;
79706;SDS011;69200;53.612;-2.416;2023-05-20T00:46:17;35.70;;;15.55;;
79706;SDS011;69200;53.612;-2.416;2023-05-20T00:48:43;37.83;;;15.65;;
79706;SDS011;69200;53.612;-2.416;2023-05-20T00:51:12;40.05;;;17.08;;
79706;SDS011;69200;53.612;-2.416;2023-05-20T00:53:38;44.13;;;17.55;;
79706;SDS011;69200;53.612;-2.416;2023-05-20T00:56:04;40.03;;;16.80;;
79706;SDS011;69200;53.612;-2.416;2023-05-20T00:58:30;41.67;;;18.05;;
79706;SDS011;69200;53.612;-2.416;2023-05-20T01:00:56;46.20;;;17.98;;
79706;SDS011;69200;53.612;-2.416;2023-05-20T01:03:21;44.70;;;17.48;;
79706;SDS011;69200;53.612;-2.416;2023-05-20T01:05:47;39.08;;;16.88;;
79706;SDS011;69200;53.612;-2.416;2023-05-20T01:08:12;38.47;;;16.38;;
79706;SDS011;69200;53.612;-2.416;2023-05-20T01:10:39;42.08;;;16.67;;
79706;SDS011;69200;53.612;-2.416;2023-05-20T01:13:07;39.65;;;16.42;;
79706;SDS011;69200;53.612;-2.416;2023-05-20T01:15:39;36.00;;;15.63;;
79706;SDS011;69200;53.612;-2.416;2023-05-20T01:18:07;38.17;;;15.55;;
79706;SDS011;69200;53.612;-2.416;2023-05-20T01:20:34;40.70;;;17.60;;
79706;SDS011;69200;53.612;-2.416;2023-05-20T01:23:01;43.53;;;17.52;;
79706;SDS011;69200;53.612;-2.416;2023-05-20T01:25:27;43.35;;;17.02;;
79706;SDS011;69200;53.612;-2.416;2023-05-20T01:27:53;44.10;;;17.35;;
79706;SDS011;69200;53.612;-2.416;2023-05-20T01:30:19;39.63;;;16.30;;
79706;SDS011;69200;53.612;-2.416;2023-05-20T01:32:51;41.65;;;17.20;;
79706;SDS011;69200;53.612;-2.416;2023-05-20T01:35:22;39.13;;;16.90;;
79706;SDS011;69200;53.612;-2.416;2023-05-20T01:37:47;40.45;;;16.08;;
79706;SDS011;69200;53.612;-2.416;2023-05-20T01:40:16;33.03;;;13.77;;
79706;SDS011;69200;53.612;-2.416;2023-05-20T01:42:42;34.45;;;13.40;;
79706;SDS011;69200;53.612;-2.416;2023-05-20T01:45:09;29.73;;;12.90;;
79706;SDS011;69200;53.612;-2.416;2023-05-20T01:47:35;28.25;;;12.48;;
79706;SDS011;69200;53.612;-2.416;2023-05-20T01:50:01;32.17;;;13.10;;
79706;SDS011;69200;53.612;-2.416;2023-05-20T01:52:27;32.05;;;13.70;;
79706;SDS011;69200;53.612;-2.416;2023-05-20T01:54:52;35.17;;;15.60;;
79706;SDS011;69200;53.612;-2.416;2023-05-20T01:57:21;37.17;;;15.40;;
79706;SDS011;69200;53.612;-2.416;2023-05-20T01:59:47;35.83;;;14.98;;
79706;SDS011;69200;53.612;-2.416;2023-05-20T02:02:13;32.45;;;13.23;;
79706;SDS011;69200;53.612;-2.416;2023-05-20T02:04:39;32.63;;;13.38;;
79706;SDS011;69200;53.612;-2.416;2023-05-20T02:07:07;30.95;;;13.70;;
79706;SDS011;69200;53.612;-2.416;2023-05-20T02:09:33;28.38;;;12.50;;
79706;SDS011;69200;53.612;-2.416;2023-05-20T02:11:58;31.15;;;11.98;;
79706;SDS011;69200;53.612;-2.416;2023-05-20T02:14:24;31.15;;;13.00;;
79706;SDS011;69200;53.612;-2.416;2023-05-20T02:16:50;30.65;;;12.70;;
79706;SDS011;69200;53.612;-2.416;2023-05-20T02:19:15;30.13;;;12.82;;
79706;SDS011;69200;53.612;-2.416;2023-05-20T02:21:47;36.85;;;14.25;;
79706;SDS011;69200;53.612;-2.416;2023-05-20T02:24:13;32.83;;;14.07;;
79706;SDS011;69200;53.612;-2.416;2023-05-20T02:26:38;35.15;;;14.32;;
79706;SDS011;69200;53.612;-2.416;2023-05-20T02:29:03;36.58;;;14.10;;
79706;SDS011;69200;53.612;-2.416;2023-05-20T02:31:29;32.65;;;13.02;;
79706;SDS011;69200;53.612;-2.416;2023-05-20T02:33:54;28.33;;;12.70;;
79706;SDS011;69200;53.612;-2.416;2023-05-20T02:36:20;35.75;;;15.20;;
79706;SDS011;69200;53.612;-2.416;2023-05-20T02:38:45;31.77;;;12.65;;
79706;SDS011;69200;53.612;-2.416;2023-05-20T02:41:10;31.17;;;12.75;;
79706;SDS011;69200;53.612;-2.416;2023-05-20T02:43:36;31.77;;;13.50;;
79706;SDS011;69200;53.612;-2.416;2023-05-20T02:46:01;35.15;;;13.85;;
79706;SDS011;69200;53.612;-2.416;2023-05-20T02:48:27;29.73;;;13.55;;
79706;SDS011;69200;53.612;-2.416;2023-05-20T02:50:53;33.80;;;14.63;;
79706;SDS011;69200;53.612;-2.416;2023-05-20T02:53:18;30.70;;;13.25;;
79706;SDS011;69200;53.612;-2.416;2023-05-20T02:55:44;29.23;;;11.98;;
79706;SDS011;69200;53.612;-2.416;2023-05-20T02:58:11;38.63;;;15.40;;
79706;SDS011;69200;53.612;-2.416;2023-05-20T03:00:37;28.95;;;12.50;;
79706;SDS011;69200;53.612;-2.416;2023-05-20T03:03:05;33.45;;;13.45;;
79706;SDS011;69200;53.612;-2.416;2023-05-20T03:05:31;31.17;;;13.25;;
79706;SDS011;69200;53.612;-2.416;2023-05-20T03:07:57;29.90;;;13.02;;
79706;SDS011;69200;53.612;-2.416;2023-05-20T03:10:23;31.45;;;12.75;;
79706;SDS011;69200;53.612;-2.416;2023-05-20T03:12:48;32.83;;;12.88;;
79706;SDS011;69200;53.612;-2.416;2023-05-20T03:15:13;29.80;;;12.27;;
79706;SDS011;69200;53.612;-2.416;2023-05-20T03:17:39;32.00;;;12.25;;
79706;SDS011;69200;53.612;-2.416;2023-05-20T03:20:05;34.47;;;13.60;;
79706;SDS011;69200;53.612;-2.416;2023-05-20T03:22:31;32.40;;;13.75;;
79706;SDS011;69200;53.612;-2.416;2023-05-20T03:24:56;29.60;;;12.70;;
79706;SDS011;69200;53.612;-2.416;2023-05-20T03:27:24;34.55;;;13.13;;
79706;SDS011;69200;53.612;-2.416;2023-05-20T03:29:50;31.30;;;13.55;;
79706;SDS011;69200;53.612;-2.416;2023-05-20T03:32:18;34.22;;;14.15;;
79706;SDS011;69200;53.612;-2.416;2023-05-20T03:34:44;34.65;;;13.60;;
79706;SDS011;69200;53.612;-2.416;2023-05-20T03:37:10;35.97;;;14.48;;
79706;SDS011;69200;53.612;-2.416;2023-05-20T03:39:35;34.25;;;13.65;;
79706;SDS011;69200;53.612;-2.416;2023-05-20T03:42:01;29.63;;;12.70;;
79706;SDS011;69200;53.612;-2.416;2023-05-20T03:44:26;35.33;;;14.85;;
79706;SDS011;69200;53.612;-2.416;2023-05-20T03:46:51;36.58;;;15.50;;
79706;SDS011;69200;53.612;-2.416;2023-05-20T03:49:17;30.67;;;12.93;;
79706;SDS011;69200;53.612;-2.416;2023-05-20T03:51:42;29.35;;;12.48;;
79706;SDS011;69200;53.612;-2.416;2023-05-20T03:54:08;29.90;;;12.15;;
79706;SDS011;69200;53.612;-2.416;2023-05-20T03:56:33;34.13;;;13.48;;
79706;SDS011;69200;53.612;-2.416;2023-05-20T03:58:58;31.23;;;13.25;;
79706;SDS011;69200;53.612;-2.416;2023-05-20T04:01:24;32.17;;;12.85;;
79706;SDS011;69200;53.612;-2.416;2023-05-20T04:03:49;30.38;;;12.85;;
79706;SDS011;69200;53.612;-2.416;2023-05-20T04:06:15;30.05;;;12.55;;
79706;SDS011;69200;53.612;-2.416;2023-05-20T04:08:40;30.52;;;12.85;;
79706;SDS011;69200;53.612;-2.416;2023-05-20T04:11:06;35.35;;;14.13;;
79706;SDS011;69200;53.612;-2.416;2023-05-20T04:13:31;32.50;;;13.57;;
79706;SDS011;69200;53.612;-2.416;2023-05-20T04:15:57;33.95;;;14.02;;
79706;SDS011;69200;53.612;-2.416;2023-05-20T04:18:25;30.52;;;11.85;;
79706;SDS011;69200;53.612;-2.416;2023-05-20T04:20:54;35.03;;;14.57;;
79706;SDS011;69200;53.612;-2.416;2023-05-20T04:23:24;31.80;;;12.50;;
79706;SDS011;69200;53.612;-2.416;2023-05-20T04:25:49;32.53;;;13.00;;
79706;SDS011;69200;53.612;-2.416;2023-05-20T04:28:15;31.25;;;12.65;;
79706;SDS011;69200;53.612;-2.416;2023-05-20T04:30:40;34.75;;;13.48;;
79706;SDS011;69200;53.612;-2.416;2023-05-20T04:33:06;32.38;;;13.15;;
79706;SDS011;69200;53.612;-2.416;2023-05-20T04:35:32;28.80;;;12.65;;
79706;SDS011;69200;53.612;-2.416;2023-05-20T04:37:59;30.85;;;12.05;;
79706;SDS011;69200;53.612;-2.416;2023-05-20T04:40:25;31.33;;;11.63;;
79706;SDS011;69200;53.612;-2.416;2023-05-20T04:42:51;27.67;;;12.57;;
79706;SDS011;69200;53.612;-2.416;2023-05-20T04:45:17;23.88;;;10.23;;
79706;SDS011;69200;53.612;-2.416;2023-05-20T04:47:42;24.90;;;11.05;;
79706;SDS011;69200;53.612;-2.416;2023-05-20T04:50:08;26.00;;;10.63;;
79706;SDS011;69200;53.612;-2.416;2023-05-20T04:52:38;23.42;;;10.30;;
79706;SDS011;69200;53.612;-2.416;2023-05-20T04:57:32;25.50;;;10.98;;
79706;SDS011;69200;53.612;-2.416;2023-05-20T04:59:59;22.45;;;9.80;;
79706;SDS011;69200;53.612;-2.416;2023-05-20T05:02:25;19.50;;;9.13;;
79706;SDS011;69200;53.612;-2.416;2023-05-20T05:04:50;20.85;;;9.50;;
79706;SDS011;69200;53.612;-2.416;2023-05-20T05:07:15;21.20;;;9.75;;
79706;SDS011;69200;53.612;-2.416;2023-05-20T05:09:41;20.30;;;9.77;;
79706;SDS011;69200;53.612;-2.416;2023-05-20T05:12:06;20.33;;;9.02;;
79706;SDS011;69200;53.612;-2.416;2023-05-20T05:14:32;18.95;;;9.18;;
79706;SDS011;69200;53.612;-2.416;2023-05-20T05:16:57;18.38;;;8.90;;
79706;SDS011;69200;53.612;-2.416;2023-05-20T05:19:22;19.55;;;8.93;;
79706;SDS011;69200;53.612;-2.416;2023-05-20T05:21:48;17.55;;;8.43;;
79706;SDS011;69200;53.612;-2.416;2023-05-20T05:24:13;19.60;;;9.02;;
79706;SDS011;69200;53.612;-2.416;2023-05-20T05:26:38;18.55;;;9.07;;
79706;SDS011;69200;53.612;-2.416;2023-05-20T05:29:04;16.27;;;8.02;;
79706;SDS011;69200;53.612;-2.416;2023-05-20T05:31:29;16.48;;;7.90;;
79706;SDS011;69200;53.612;-2.416;2023-05-20T05:33:55;18.23;;;8.70;;
79706;SDS011;69200;53.612;-2.416;2023-05-20T05:36:22;17.05;;;8.88;;
79706;SDS011;69200;53.612;-2.416;2023-05-20T05:38:48;17.65;;;8.65;;
79706;SDS011;69200;53.612;-2.416;2023-05-20T05:41:14;19.33;;;8.77;;
79706;SDS011;69200;53.612;-2.416;2023-05-20T05:43:40;18.90;;;9.10;;
79706;SDS011;69200;53.612;-2.416;2023-05-20T05:46:05;17.33;;;9.18;;
79706;SDS011;69200;53.612;-2.416;2023-05-20T05:48:30;16.50;;;8.43;;
79706;SDS011;69200;53.612;-2.416;2023-05-20T05:50:56;19.08;;;9.43;;
79706;SDS011;69200;53.612;-2.416;2023-05-20T05:53:21;17.45;;;8.52;;
79706;SDS011;69200;53.612;-2.416;2023-05-20T05:55:47;19.83;;;9.20;;
79706;SDS011;69200;53.612;-2.416;2023-05-20T05:58:12;19.10;;;8.80;;
79706;SDS011;69200;53.612;-2.416;2023-05-20T06:00:38;17.92;;;8.68;;
79706;SDS011;69200;53.612;-2.416;2023-05-20T06:03:03;18.40;;;8.63;;
79706;SDS011;69200;53.612;-2.416;2023-05-20T06:05:29;17.73;;;8.32;;
79706;SDS011;69200;53.612;-2.416;2023-05-20T06:07:55;19.55;;;8.65;;
79706;SDS011;69200;53.612;-2.416;2023-05-20T06:10:21;18.83;;;8.80;;
79706;SDS011;69200;53.612;-2.416;2023-05-20T06:12:46;18.88;;;8.70;;
79706;SDS011;69200;53.612;-2.416;2023-05-20T06:15:11;19.05;;;8.07;;
79706;SDS011;69200;53.612;-2.416;2023-05-20T06:17:37;15.95;;;7.18;;
79706;SDS011;69200;53.612;-2.416;2023-05-20T06:20:03;15.80;;;6.57;;
79706;SDS011;69200;53.612;-2.416;2023-05-20T06:22:28;15.77;;;7.05;;
79706;SDS011;69200;53.612;-2.416;2023-05-20T06:24:54;15.75;;;6.30;;
79706;SDS011;69200;53.612;-2.416;2023-05-20T06:27:20;16.83;;;6.95;;
79706;SDS011;69200;53.612;-2.416;2023-05-20T06:29:46;17.23;;;7.38;;
79706;SDS011;69200;53.612;-2.416;2023-05-20T06:32:11;17.48;;;7.13;;
79706;SDS011;69200;53.612;-2.416;2023-05-20T06:34:36;13.80;;;6.13;;
79706;SDS011;69200;53.612;-2.416;2023-05-20T06:37:02;15.38;;;6.53;;
79706;SDS011;69200;53.612;-2.416;2023-05-20T06:39:27;13.50;;;6.10;;
79706;SDS011;69200;53.612;-2.416;2023-05-20T06:41:53;12.50;;;4.70;;
79706;SDS011;69200;53.612;-2.416;2023-05-20T06:44:18;13.93;;;5.82;;
79706;SDS011;69200;53.612;-2.416;2023-05-20T06:46:44;12.45;;;4.82;;
79706;SDS011;69200;53.612;-2.416;2023-05-20T06:49:09;11.05;;;4.38;;
79706;SDS011;69200;53.612;-2.416;2023-05-20T06:51:34;10.63;;;4.72;;
79706;SDS011;69200;53.612;-2.416;2023-05-20T06:54:00;12.95;;;4.00;;
79706;SDS011;69200;53.612;-2.416;2023-05-20T06:56:25;10.48;;;3.83;;
79706;SDS011;69200;53.612;-2.416;2023-05-20T06:58:51;13.30;;;3.83;;
79706;SDS011;69200;53.612;-2.416;2023-05-20T07:01:16;7.65;;;3.60;;
79706;SDS011;69200;53.612;-2.416;2023-05-20T07:03:42;8.70;;;3.00;;
79706;SDS011;69200;53.612;-2.416;2023-05-20T07:06:08;7.28;;;2.50;;
79706;SDS011;69200;53.612;-2.416;2023-05-20T07:08:34;7.32;;;2.55;;
79706;SDS011;69200;53.612;-2.416;2023-05-20T07:10:59;7.47;;;2.58;;
79706;SDS011;69200;53.612;-2.416;2023-05-20T07:13:25;6.07;;;2.05;;
79706;SDS011;69200;53.612;-2.416;2023-05-20T07:15:50;8.15;;;2.00;;
79706;SDS011;69200;53.612;-2.416;2023-05-20T07:18:16;5.53;;;1.92;;
79706;SDS011;69200;53.612;-2.416;2023-05-20T07:20:42;8.27;;;2.45;;
79706;SDS011;69200;53.612;-2.416;2023-05-20T07:23:08;9.40;;;2.53;;
79706;SDS011;69200;53.612;-2.416;2023-05-20T07:25:33;6.38;;;2.40;;
79706;SDS011;69200;53.612;-2.416;2023-05-20T07:27:59;6.72;;;2.63;;
79706;SDS011;69200;53.612;-2.416;2023-05-20T07:30:25;9.73;;;2.67;;
79706;SDS011;69200;53.612;-2.416;2023-05-20T07:32:51;9.00;;;3.35;;
79706;SDS011;69200;53.612;-2.416;2023-05-20T07:35:16;9.18;;;2.95;;
79706;SDS011;69200;53.612;-2.416;2023-05-20T07:37:42;8.73;;;2.92;;
79706;SDS011;69200;53.612;-2.416;2023-05-20T07:40:07;9.23;;;3.80;;
79706;SDS011;69200;53.612;-2.416;2023-05-20T07:42:33;9.32;;;3.72;;
79706;SDS011;69200;53.612;-2.416;2023-05-20T07:44:59;8.40;;;4.07;;
79706;SDS011;69200;53.612;-2.416;2023-05-20T07:47:24;11.32;;;3.92;;
79706;SDS011;69200;53.612;-2.416;2023-05-20T07:49:50;11.45;;;3.92;;
79706;SDS011;69200;53.612;-2.416;2023-05-20T07:52:15;9.82;;;3.75;;
79706;SDS011;69200;53.612;-2.416;2023-05-20T07:54:41;13.10;;;4.78;;
79706;SDS011;69200;53.612;-2.416;2023-05-20T07:57:06;13.52;;;4.50;;
79706;SDS011;69200;53.612;-2.416;2023-05-20T07:59:32;12.85;;;5.18;;
79706;SDS011;69200;53.612;-2.416;2023-05-20T08:01:57;12.25;;;5.10;;
79706;SDS011;69200;53.612;-2.416;2023-05-20T08:04:23;14.75;;;5.35;;
79706;SDS011;69200;53.612;-2.416;2023-05-20T08:06:48;13.65;;;4.80;;
79706;SDS011;69200;53.612;-2.416;2023-05-20T08:09:14;10.00;;;3.97;;
79706;SDS011;69200;53.612;-2.416;2023-05-20T08:11:40;10.77;;;4.07;;
79706;SDS011;69200;53.612;-2.416;2023-05-20T08:14:05;13.85;;;4.22;;
79706;SDS011;69200;53.612;-2.416;2023-05-20T08:16:31;14.15;;;4.18;;
79706;SDS011;69200;53.612;-2.416;2023-05-20T08:18:56;14.73;;;5.32;;
79706;SDS011;69200;53.612;-2.416;2023-05-20T08:21:22;13.18;;;5.43;;
79706;SDS011;69200;53.612;-2.416;2023-05-20T08:23:47;10.55;;;4.28;;
79706;SDS011;69200;53.612;-2.416;2023-05-20T08:26:13;11.52;;;4.40;;
79706;SDS011;69200;53.612;-2.416;2023-05-20T08:28:38;15.77;;;4.50;;
79706;SDS011;69200;53.612;-2.416;2023-05-20T08:31:04;12.55;;;4.35;;
79706;SDS011;69200;53.612;-2.416;2023-05-20T08:33:29;12.05;;;4.20;;
79706;SDS011;69200;53.612;-2.416;2023-05-20T08:35:55;9.43;;;4.30;;
79706;SDS011;69200;53.612;-2.416;2023-05-20T08:38:20;11.48;;;4.60;;
79706;SDS011;69200;53.612;-2.416;2023-05-20T08:40:50;13.27;;;4.07;;
79706;SDS011;69200;53.612;-2.416;2023-05-20T08:43:17;13.07;;;4.30;;
79706;SDS011;69200;53.612;-2.416;2023-05-20T08:45:43;13.57;;;4.22;;
79706;SDS011;69200;53.612;-2.416;2023-05-20T08:48:09;11.88;;;4.70;;
79706;SDS011;69200;53.612;-2.416;2023-05-20T08:50:36;10.80;;;4.72;;
79706;SDS011;69200;53.612;-2.416;2023-05-20T08:53:02;13.43;;;4.55;;
79706;SDS011;69200;53.612;-2.416;2023-05-20T08:58:17;13.20;;;4.50;;
79706;SDS011;69200;53.612;-2.416;2023-05-20T09:00:43;16.08;;;4.80;;
79706;SDS011;69200;53.612;-2.416;2023-05-20T09:03:09;11.82;;;3.85;;
79706;SDS011;69200;53.612;-2.416;2023-05-20T09:05:35;16.33;;;4.43;;
79706;SDS011;69200;53.612;-2.416;2023-05-20T09:08:04;9.43;;;3.85;;
79706;SDS011;69200;53.612;-2.416;2023-05-20T09:10:31;11.45;;;4.05;;
79706;SDS011;69200;53.612;-2.416;2023-05-20T09:12:58;9.13;;;3.92;;
79706;SDS011;69200;53.612;-2.416;2023-05-20T09:15:25;10.57;;;3.78;;
79706;SDS011;69200;53.612;-2.416;2023-05-20T09:17:51;9.38;;;3.97;;
79706;SDS011;69200;53.612;-2.416;2023-05-20T09:20:16;12.88;;;4.25;;
79706;SDS011;69200;53.612;-2.416;2023-05-20T09:22:42;8.90;;;3.97;;
79706;SDS011;69200;53.612;-2.416;2023-05-20T09:25:07;10.32;;;3.92;;
79706;SDS011;69200;53.612;-2.416;2023-05-20T09:27:34;12.13;;;3.92;;
79706;SDS011;69200;53.612;-2.416;2023-05-20T09:30:00;14.18;;;4.45;;
79706;SDS011;69200;53.612;-2.416;2023-05-20T09:32:25;11.27;;;4.25;;
79706;SDS011;69200;53.612;-2.416;2023-05-20T09:34:54;13.25;;;5.03;;
79706;SDS011;69200;53.612;-2.416;2023-05-20T09:37:20;13.50;;;4.70;;
79706;SDS011;69200;53.612;-2.416;2023-05-20T09:42:25;10.85;;;4.63;;
79706;SDS011;69200;53.612;-2.416;2023-05-20T09:45:08;12.63;;;4.63;;
79706;SDS011;69200;53.612;-2.416;2023-05-20T09:47:34;12.55;;;4.78;;
79706;SDS011;69200;53.612;-2.416;2023-05-20T09:50:05;12.60;;;4.55;;
79706;SDS011;69200;53.612;-2.416;2023-05-20T09:52:32;11.20;;;5.18;;
79706;SDS011;69200;53.612;-2.416;2023-05-20T09:55:01;12.85;;;4.90;;
79706;SDS011;69200;53.612;-2.416;2023-05-20T09:57:34;14.43;;;5.15;;
79706;SDS011;69200;53.612;-2.416;2023-05-20T10:00:00;16.27;;;5.85;;
79706;SDS011;69200;53.612;-2.416;2023-05-20T10:02:29;12.88;;;5.25;;
79706;SDS011;69200;53.612;-2.416;2023-05-20T10:04:55;11.65;;;4.13;;
79706;SDS011;69200;53.612;-2.416;2023-05-20T10:07:27;13.55;;;5.30;;
79706;SDS011;69200;53.612;-2.416;2023-05-20T10:10:04;13.75;;;5.15;;
79706;SDS011;69200;53.612;-2.416;2023-05-20T10:13:04;10.93;;;4.05;;
79706;SDS011;69200;53.612;-2.416;2023-05-20T10:20:50;12.05;;;4.40;;
79706;SDS011;69200;53.612;-2.416;2023-05-20T10:23:28;9.88;;;4.35;;
79706;SDS011;69200;53.612;-2.416;2023-05-20T10:25:55;10.82;;;3.72;;
79706;SDS011;69200;53.612;-2.416;2023-05-20T10:28:28;8.10;;;3.80;;
79706;SDS011;69200;53.612;-2.416;2023-05-20T10:30:55;10.48;;;3.97;;
79706;SDS011;69200;53.612;-2.416;2023-05-20T10:33:21;10.15;;;3.30;;
79706;SDS011;69200;53.612;-2.416;2023-05-20T10:35:48;11.23;;;4.43;;
79706;SDS011;69200;53.612;-2.416;2023-05-20T10:38:16;10.10;;;4.05;;
79706;SDS011;69200;53.612;-2.416;2023-05-20T10:40:41;13.07;;;4.15;;
79706;SDS011;69200;53.612;-2.416;2023-05-20T10:43:08;10.93;;;3.47;;
79706;SDS011;69200;53.612;-2.416;2023-05-20T10:45:35;12.07;;;3.65;;
79706;SDS011;69200;53.612;-2.416;2023-05-20T10:48:18;9.05;;;3.95;;
79706;SDS011;69200;53.612;-2.416;2023-05-20T10:50:54;10.65;;;3.65;;
79706;SDS011;69200;53.612;-2.416;2023-05-20T10:53:25;8.88;;;4.03;;
79706;SDS011;69200;53.612;-2.416;2023-05-20T10:55:52;9.88;;;3.50;;
79706;SDS011;69200;53.612;-2.416;2023-05-20T10:58:21;10.50;;;3.47;;
79706;SDS011;69200;53.612;-2.416;2023-05-20T11:00:48;9.25;;;3.50;;
79706;SDS011;69200;53.612;-2.416;2023-05-20T11:03:17;11.15;;;3.70;;
79706;SDS011;69200;53.612;-2.416;2023-05-20T11:05:45;9.93;;;3.80;;
79706;SDS011;69200;53.612;-2.416;2023-05-20T11:08:12;10.00;;;3.60;;
79706;SDS011;69200;53.612;-2.416;2023-05-20T11:10:38;8.13;;;3.38;;
79706;SDS011;69200;53.612;-2.416;2023-05-20T11:13:05;8.93;;;3.40;;
79706;SDS011;69200;53.612;-2.416;2023-05-20T11:15:33;9.18;;;3.35;;
79706;SDS011;69200;53.612;-2.416;2023-05-20T11:18:00;8.55;;;3.55;;
79706;SDS011;69200;53.612;-2.416;2023-05-20T11:20:28;7.43;;;3.13;;
79706;SDS011;69200;53.612;-2.416;2023-05-20T11:22:54;8.10;;;2.72;;
79706;SDS011;69200;53.612;-2.416;2023-05-20T11:25:22;7.68;;;3.05;;
79706;SDS011;69200;53.612;-2.416;2023-05-20T11:27:48;8.02;;;3.33;;
79706;SDS011;69200;53.612;-2.416;2023-05-20T11:30:14;8.35;;;3.28;;
79706;SDS011;69200;53.612;-2.416;2023-05-20T11:32:44;8.25;;;3.17;;
79706;SDS011;69200;53.612;-2.416;2023-05-20T11:35:29;6.25;;;2.88;;
79706;SDS011;69200;53.612;-2.416;2023-05-20T11:38:05;9.82;;;3.30;;
79706;SDS011;69200;53.612;-2.416;2023-05-20T11:40:33;10.35;;;3.55;;
79706;SDS011;69200;53.612;-2.416;2023-05-20T11:43:02;10.50;;;3.40;;
79706;SDS011;69200;53.612;-2.416;2023-05-20T11:45:40;7.20;;;3.15;;
79706;SDS011;69200;53.612;-2.416;2023-05-20T11:48:07;8.30;;;2.97;;
79706;SDS011;69200;53.612;-2.416;2023-05-20T11:50:34;7.65;;;2.72;;
79706;SDS011;69200;53.612;-2.416;2023-05-20T11:53:05;8.10;;;3.40;;
79706;SDS011;69200;53.612;-2.416;2023-05-20T11:55:32;9.10;;;3.30;;
79706;SDS011;69200;53.612;-2.416;2023-05-20T11:57:59;7.13;;;3.03;;
79706;SDS011;69200;53.612;-2.416;2023-05-20T12:00:27;8.43;;;2.90;;
79706;SDS011;69200;53.612;-2.416;2023-05-20T12:02:53;9.55;;;3.20;;
79706;SDS011;69200;53.612;-2.416;2023-05-20T12:05:18;9.52;;;2.85;;
79706;SDS011;69200;53.612;-2.416;2023-05-20T12:07:44;8.48;;;3.00;;
79706;SDS011;69200;53.612;-2.416;2023-05-20T12:10:10;8.38;;;2.80;;
79706;SDS011;69200;53.612;-2.416;2023-05-20T12:12:35;7.05;;;2.70;;
79706;SDS011;69200;53.612;-2.416;2023-05-20T12:15:02;7.65;;;2.78;;
79706;SDS011;69200;53.612;-2.416;2023-05-20T12:17:28;11.38;;;2.97;;
79706;SDS011;69200;53.612;-2.416;2023-05-20T12:19:54;8.25;;;2.50;;
79706;SDS011;69200;53.612;-2.416;2023-05-20T12:22:19;9.18;;;3.15;;
79706;SDS011;69200;53.612;-2.416;2023-05-20T12:24:45;8.13;;;2.90;;
79706;SDS011;69200;53.612;-2.416;2023-05-20T12:27:10;9.82;;;2.72;;
79706;SDS011;69200;53.612;-2.416;2023-05-20T12:29:36;7.05;;;2.45;;
79706;SDS011;69200;53.612;-2.416;2023-05-20T12:32:02;7.55;;;2.83;;
79706;SDS011;69200;53.612;-2.416;2023-05-20T12:34:27;7.32;;;2.90;;
79706;SDS011;69200;53.612;-2.416;2023-05-20T12:36:54;8.48;;;2.35;;
79706;SDS011;69200;53.612;-2.416;2023-05-20T12:39:19;10.02;;;2.90;;
79706;SDS011;69200;53.612;-2.416;2023-05-20T12:41:45;6.60;;;2.58;;
79706;SDS011;69200;53.612;-2.416;2023-05-20T12:44:10;6.65;;;2.28;;
79706;SDS011;69200;53.612;-2.416;2023-05-20T12:46:36;6.07;;;2.20;;
79706;SDS011;69200;53.612;-2.416;2023-05-20T12:49:02;7.10;;;2.30;;
79706;SDS011;69200;53.612;-2.416;2023-05-20T12:51:28;8.90;;;3.35;;
79706;SDS011;69200;53.612;-2.416;2023-05-20T12:53:53;7.30;;;2.67;;
79706;SDS011;69200;53.612;-2.416;2023-05-20T12:56:18;6.50;;;2.63;;
79706;SDS011;69200;53.612;-2.416;2023-05-20T12:58:44;5.63;;;2.50;;
79706;SDS011;69200;53.612;-2.416;2023-05-20T13:01:09;6.32;;;2.22;;
79706;SDS011;69200;53.612;-2.416;2023-05-20T13:03:35;5.40;;;2.22;;
79706;SDS011;69200;53.612;-2.416;2023-05-20T13:06:00;7.25;;;2.47;;
79706;SDS011;69200;53.612;-2.416;2023-05-20T13:08:26;7.90;;;2.95;;
79706;SDS011;69200;53.612;-2.416;2023-05-20T13:10:51;10.77;;;2.97;;
79706;SDS011;69200;53.612;-2.416;2023-05-20T13:13:16;6.72;;;2.78;;
79706;SDS011;69200;53.612;-2.416;2023-05-20T13:15:45;8.10;;;2.63;;
79706;SDS011;69200;53.612;-2.416;2023-05-20T13:18:14;6.78;;;2.72;;
79706;SDS011;69200;53.612;-2.416;2023-05-20T13:20:43;8.40;;;2.70;;
79706;SDS011;69200;53.612;-2.416;2023-05-20T13:23:08;7.88;;;2.88;;
79706;SDS011;69200;53.612;-2.416;2023-05-20T13:25:34;9.05;;;3.13;;
79706;SDS011;69200;53.612;-2.416;2023-05-20T13:28:00;7.68;;;2.70;;
79706;SDS011;69200;53.612;-2.416;2023-05-20T13:30:26;11.93;;;3.25;;
79706;SDS011;69200;53.612;-2.416;2023-05-20T13:32:52;7.18;;;2.83;;
79706;SDS011;69200;53.612;-2.416;2023-05-20T13:35:17;7.75;;;3.00;;
79706;SDS011;69200;53.612;-2.416;2023-05-20T13:37:43;6.88;;;2.60;;
79706;SDS011;69200;53.612;-2.416;2023-05-20T13:40:09;7.47;;;3.20;;
79706;SDS011;69200;53.612;-2.416;2023-05-20T13:42:35;8.43;;;3.00;;
79706;SDS011;69200;53.612;-2.416;2023-05-20T13:45:00;8.68;;;3.08;;
79706;SDS011;69200;53.612;-2.416;2023-05-20T13:47:25;6.18;;;2.42;;
79706;SDS011;69200;53.612;-2.416;2023-05-20T13:49:51;7.88;;;2.90;;
79706;SDS011;69200;53.612;-2.416;2023-05-20T13:52:16;7.60;;;2.67;;
79706;SDS011;69200;53.612;-2.416;2023-05-20T13:54:42;8.43;;;2.92;;
79706;SDS011;69200;53.612;-2.416;2023-05-20T13:57:10;6.03;;;2.42;;
79706;SDS011;69200;53.612;-2.416;2023-05-20T13:59:36;6.85;;;2.95;;
79706;SDS011;69200;53.612;-2.416;2023-05-20T14:02:01;8.20;;;3.00;;
79706;SDS011;69200;53.612;-2.416;2023-05-20T14:04:27;8.93;;;2.78;;
79706;SDS011;69200;53.612;-2.416;2023-05-20T14:06:52;10.65;;;3.42;;
79706;SDS011;69200;53.612;-2.416;2023-05-20T14:09:18;11.88;;;2.83;;
79706;SDS011;69200;53.612;-2.416;2023-05-20T14:11:43;7.68;;;2.92;;
79706;SDS011;69200;53.612;-2.416;2023-05-20T14:14:09;8.57;;;3.03;;
79706;SDS011;69200;53.612;-2.416;2023-05-20T14:16:34;7.47;;;2.67;;
79706;SDS011;69200;53.612;-2.416;2023-05-20T14:19:00;8.27;;;3.35;;
79706;SDS011;69200;53.612;-2.416;2023-05-20T14:21:25;9.27;;;2.83;;
79706;SDS011;69200;53.612;-2.416;2023-05-20T14:23:51;6.22;;;2.60;;
79706;SDS011;69200;53.612;-2.416;2023-05-20T14:26:16;8.07;;;2.75;;
79706;SDS011;69200;53.612;-2.416;2023-05-20T14:28:41;6.38;;;2.63;;